Time;durP1;ratioP1;P1;durP2;ratioP2;P2;SDS_P1;SDS_P2;PMS_P1;PMS_P2;Temp;Humidity;BMP_temperature;BMP_pressure;BME280_temperature;BME280_humidity;BME280_pressure;Samples;Min_cycle;Max_cycle;Signal;HPM_P1;HPM_P2
2022/10/18 00:01:08;;;;;;;12.95;9.57;;;15.90;99.90;;;;;;5109833;28;20200;-70
2022/10/18 00:03:36;;;;;;;11.30;9.98;;;15.90;99.90;;;;;;5112348;28;20206;-69
2022/10/18 00:06:04;;;;;;;13.63;8.97;;;15.90;99.90;;;;;;5111418;28;20196;-70
2022/10/18 00:08:31;;;;;;;11.70;8.90;;;15.80;99.90;;;;;;5110159;28;20207;-70
2022/10/18 00:10:57;;;;;;;13.67;9.03;;;15.80;99.90;;;;;;5108221;28;20224;-71
2022/10/18 00:13:24;;;;;;;10.80;9.23;;;15.90;99.90;;;;;;5112602;28;20213;-71
2022/10/18 00:15:53;;;;;;;10.90;8.20;;;15.80;99.90;;;;;;5112676;28;20211;-70
2022/10/18 00:18:22;;;;;;;12.27;8.60;;;15.80;99.90;;;;;;5108562;28;20204;-69
2022/10/18 00:20:58;;;;;;;10.37;8.03;;;15.80;99.90;;;;;;5107782;28;20204;-70
2022/10/18 00:23:25;;;;;;;11.57;7.50;;;15.80;99.90;;;;;;5113561;28;20232;-70
2022/10/18 00:25:59;;;;;;;13.43;7.60;;;15.80;99.90;;;;;;5112409;28;20212;-70
2022/10/18 00:28:26;;;;;;;11.57;8.40;;;15.80;99.90;;;;;;5110876;28;20203;-70
2022/10/18 00:30:53;;;;;;;13.57;8.57;;;15.80;99.90;;;;;;5110625;28;20228;-70
2022/10/18 00:33:21;;;;;;;9.90;7.87;;;15.70;99.90;;;;;;5112418;28;20215;-70
2022/10/18 00:35:47;;;;;;;12.00;8.10;;;15.80;99.90;;;;;;5110813;28;20219;-70
2022/10/18 00:38:14;;;;;;;9.43;7.63;;;15.80;99.90;;;;;;5110037;28;20204;-70
2022/10/18 00:40:41;;;;;;;11.80;7.53;;;15.80;99.90;;;;;;5115716;28;20214;-70
2022/10/18 00:43:15;;;;;;;10.70;7.43;;;15.80;99.90;;;;;;5115559;28;20227;-70
2022/10/18 00:45:41;;;;;;;12.03;7.60;;;15.70;99.90;;;;;;5116195;28;20212;-70
2022/10/18 00:48:08;;;;;;;11.75;7.68;;;15.70;99.90;;;;;;5111592;28;20207;-71
2022/10/18 00:50:36;;;;;;;9.20;7.50;;;15.70;99.90;;;;;;5114716;28;20230;-70
2022/10/18 00:53:08;;;;;;;11.67;7.60;;;15.70;99.90;;;;;;5103573;28;20204;-70
2022/10/18 00:55:35;;;;;;;11.50;7.73;;;15.70;99.90;;;;;;5115328;28;20245;-70
2022/10/18 00:58:03;;;;;;;10.97;7.17;;;15.70;99.90;;;;;;5113447;28;20215;-70
2022/10/18 01:00:30;;;;;;;12.00;8.07;;;15.70;99.90;;;;;;5116338;28;20233;-70
2022/10/18 01:02:58;;;;;;;8.27;6.67;;;15.70;99.90;;;;;;5114909;28;20566;-71
2022/10/18 01:05:25;;;;;;;8.13;7.00;;;15.70;99.90;;;;;;5109494;28;20572;-70
2022/10/18 01:08:14;;;;;;;8.67;6.77;;;15.70;99.90;;;;;;5114821;28;20207;-71
2022/10/18 01:10:49;;;;;;;7.50;6.47;;;15.60;99.90;;;;;;5106319;28;20211;-70
2022/10/18 01:13:30;;;;;;;10.40;6.53;;;15.60;99.90;;;;;;5115709;28;20203;-70
2022/10/18 01:16:01;;;;;;;13.00;6.97;;;15.60;99.90;;;;;;5113323;28;20211;-70
2022/10/18 01:18:33;;;;;;;9.47;6.30;;;15.60;99.90;;;;;;5109528;28;20212;-70
2022/10/18 01:21:17;;;;;;;10.43;6.95;;;15.60;99.90;;;;;;5115304;28;20621;-71
2022/10/18 01:24:14;;;;;;;8.20;6.85;;;15.60;99.90;;;;;;5116796;28;20228;-70
2022/10/18 01:27:07;;;;;;;7.77;6.50;;;15.50;99.90;;;;;;5101452;28;20231;-70
2022/10/18 01:29:50;;;;;;;10.10;6.65;;;15.60;99.90;;;;;;5058943;28;20664;-70
2022/10/18 01:32:20;;;;;;;8.03;6.20;;;15.50;99.90;;;;;;5115330;28;20196;-70
2022/10/18 01:34:50;;;;;;;7.57;6.13;;;15.50;99.90;;;;;;5113863;28;20200;-71
2022/10/18 01:37:19;;;;;;;8.93;5.88;;;15.50;99.90;;;;;;5113794;28;20206;-71
2022/10/18 01:39:49;;;;;;;9.00;6.17;;;15.40;99.90;;;;;;5114422;28;20286;-70
2022/10/18 01:42:20;;;;;;;7.50;6.22;;;15.40;99.90;;;;;;5112985;28;20225;-70
2022/10/18 01:44:48;;;;;;;11.27;6.30;;;15.40;99.90;;;;;;5115404;28;20202;-70
2022/10/18 01:47:15;;;;;;;8.83;6.30;;;15.40;99.90;;;;;;5112590;28;20216;-69
2022/10/18 01:49:43;;;;;;;9.97;6.03;;;15.40;99.90;;;;;;5112020;28;20200;-70
2022/10/18 01:52:13;;;;;;;8.63;5.80;;;15.30;99.90;;;;;;5114350;28;20208;-70
2022/10/18 01:54:42;;;;;;;7.88;6.25;;;15.40;99.90;;;;;;5113595;28;20207;-69
2022/10/18 01:57:17;;;;;;;11.93;6.23;;;15.40;99.90;;;;;;5110186;28;20208;-69
2022/10/18 01:59:56;;;;;;;9.30;6.17;;;15.40;99.90;;;;;;5112226;28;20207;-69
2022/10/18 02:02:35;;;;;;;9.77;5.82;;;15.40;99.90;;;;;;5115253;28;20559;-71
2022/10/18 02:05:12;;;;;;;11.77;6.07;;;15.40;99.90;;;;;;5114356;28;20200;-71
2022/10/18 02:07:44;;;;;;;6.80;5.47;;;15.40;99.90;;;;;;5113080;28;20668;-71
2022/10/18 02:10:14;;;;;;;9.47;6.10;;;15.30;99.90;;;;;;5114223;28;20216;-70
2022/10/18 02:12:43;;;;;;;8.57;5.20;;;15.30;99.90;;;;;;5112679;28;20200;-71
2022/10/18 02:15:15;;;;;;;11.23;6.20;;;15.30;99.90;;;;;;5113205;28;20219;-72
2022/10/18 02:17:45;;;;;;;7.87;5.70;;;15.30;99.90;;;;;;5110842;27;20204;-71
2022/10/18 02:20:19;;;;;;;8.03;5.80;;;15.40;99.90;;;;;;5109581;28;20266;-71
2022/10/18 02:22:49;;;;;;;9.57;5.67;;;15.40;99.90;;;;;;5113593;28;20216;-72
2022/10/18 02:25:19;;;;;;;10.80;5.55;;;15.30;99.90;;;;;;5113675;28;20214;-72
2022/10/18 02:27:46;;;;;;;6.87;5.20;;;15.30;99.90;;;;;;5110625;28;20743;-72
2022/10/18 02:30:14;;;;;;;6.43;5.10;;;15.40;99.90;;;;;;5112178;28;20246;-73
2022/10/18 02:32:45;;;;;;;7.80;5.23;;;15.40;99.90;;;;;;5106785;28;20237;-72
2022/10/18 02:35:21;;;;;;;10.63;5.67;;;15.40;99.90;;;;;;5114211;27;20200;-72
2022/10/18 02:37:50;;;;;;;8.07;5.13;;;15.40;99.90;;;;;;5111410;28;21680;-71
2022/10/18 02:40:17;;;;;;;10.97;5.53;;;15.40;99.90;;;;;;5113204;28;20199;-72
2022/10/18 02:42:47;;;;;;;7.57;5.63;;;15.40;99.90;;;;;;5111449;28;20200;-72
2022/10/18 02:45:14;;;;;;;9.13;5.70;;;15.40;99.90;;;;;;5113741;28;20223;-71
2022/10/18 02:47:41;;;;;;;7.50;5.47;;;15.40;99.90;;;;;;5106998;28;20204;-72
2022/10/18 02:50:09;;;;;;;6.97;5.50;;;15.40;99.90;;;;;;5112615;28;20245;-73
2022/10/18 02:52:37;;;;;;;7.77;5.47;;;15.40;99.90;;;;;;5113202;28;20590;-72
2022/10/18 02:55:05;;;;;;;6.97;5.63;;;15.40;99.90;;;;;;5113192;28;20203;-71
2022/10/18 02:57:32;;;;;;;7.20;5.93;;;15.40;99.90;;;;;;5110156;28;20555;-71
2022/10/18 02:59:59;;;;;;;8.07;5.43;;;15.50;99.90;;;;;;5113271;28;20211;-71
2022/10/18 03:02:26;;;;;;;11.13;5.30;;;15.40;99.90;;;;;;5112954;28;20225;-71
2022/10/18 03:04:53;;;;;;;9.37;5.53;;;15.40;99.90;;;;;;5107629;28;20599;-72
2022/10/18 03:07:20;;;;;;;8.30;5.90;;;15.50;99.90;;;;;;5111727;28;20204;-72
2022/10/18 03:09:48;;;;;;;8.87;5.40;;;15.40;99.90;;;;;;5111032;28;20207;-72
2022/10/18 03:12:15;;;;;;;8.07;5.17;;;15.40;99.90;;;;;;5112387;28;20228;-73
2022/10/18 03:14:41;;;;;;;9.30;5.80;;;15.40;99.90;;;;;;5111059;28;20207;-72
2022/10/18 03:17:08;;;;;;;6.23;5.00;;;15.40;99.90;;;;;;5112386;28;20219;-71
2022/10/18 03:19:35;;;;;;;7.50;5.40;;;15.40;99.90;;;;;;5107357;28;20212;-71
2022/10/18 03:22:01;;;;;;;7.27;5.07;;;15.40;99.90;;;;;;5113009;28;20210;-71
2022/10/18 03:24:28;;;;;;;9.77;5.50;;;15.30;99.90;;;;;;5108043;28;20211;-71
2022/10/18 03:26:56;;;;;;;8.40;5.33;;;15.40;99.90;;;;;;5111555;28;20243;-72
2022/10/18 03:29:23;;;;;;;8.40;5.40;;;15.50;99.90;;;;;;5109548;28;20207;-71
2022/10/18 03:31:50;;;;;;;8.33;5.00;;;15.50;99.90;;;;;;5123046;27;20321;-71
2022/10/18 03:34:17;;;;;;;8.20;5.57;;;15.50;99.90;;;;;;5110970;28;20691;-71
2022/10/18 03:36:44;;;;;;;6.63;5.03;;;15.40;99.90;;;;;;5101697;28;20249;-71
2022/10/18 03:39:11;;;;;;;6.60;5.50;;;15.40;99.90;;;;;;5111662;28;20287;-72
2022/10/18 03:41:38;;;;;;;7.03;5.13;;;15.40;99.90;;;;;;5112228;28;20218;-70
2022/10/18 03:44:06;;;;;;;8.40;5.40;;;15.40;99.90;;;;;;5110428;28;20203;-72
2022/10/18 03:46:33;;;;;;;6.77;4.80;;;15.40;99.90;;;;;;5112310;28;20196;-71
2022/10/18 03:49:00;;;;;;;6.67;5.13;;;15.40;99.90;;;;;;5110383;28;20644;-72
2022/10/18 03:51:27;;;;;;;6.07;5.27;;;15.40;99.90;;;;;;5107607;28;20211;-71
2022/10/18 03:53:53;;;;;;;10.13;5.67;;;15.40;99.90;;;;;;5111999;28;20199;-72
2022/10/18 03:56:20;;;;;;;7.00;5.43;;;15.40;99.90;;;;;;5110652;28;20212;-72
2022/10/18 03:58:47;;;;;;;6.67;4.87;;;15.40;99.90;;;;;;5110761;28;20211;-70
2022/10/18 04:01:15;;;;;;;8.33;4.83;;;15.40;99.90;;;;;;5111066;28;20227;-71
2022/10/18 04:03:42;;;;;;;6.17;4.53;;;15.40;99.90;;;;;;5098444;28;20208;-72
2022/10/18 04:06:08;;;;;;;5.70;5.03;;;15.40;99.90;;;;;;5110465;28;20696;-71
2022/10/18 04:08:35;;;;;;;7.57;5.30;;;15.40;99.90;;;;;;5109867;28;20203;-72
2022/10/18 04:11:07;;;;;;;7.60;4.90;;;15.40;99.90;;;;;;5113900;28;20223;-71
2022/10/18 04:13:33;;;;;;;8.70;4.63;;;15.40;99.90;;;;;;5109076;28;20196;-71
2022/10/18 04:16:00;;;;;;;6.10;5.10;;;15.40;99.90;;;;;;5113958;28;20203;-72
2022/10/18 04:18:28;;;;;;;8.87;5.30;;;15.50;99.90;;;;;;5116370;28;20239;-72
2022/10/18 04:20:55;;;;;;;7.57;5.30;;;15.40;99.90;;;;;;5116692;28;20222;-72
2022/10/18 04:23:22;;;;;;;5.60;4.90;;;15.50;99.90;;;;;;5114378;28;20227;-72
2022/10/18 04:25:49;;;;;;;6.73;5.33;;;15.50;99.90;;;;;;5115838;28;20208;-72
2022/10/18 04:28:15;;;;;;;10.33;5.07;;;15.50;99.90;;;;;;5115348;28;20208;-73
2022/10/18 04:30:42;;;;;;;6.90;4.80;;;15.40;99.90;;;;;;5114199;28;20660;-72
2022/10/18 04:33:09;;;;;;;5.47;4.40;;;15.40;99.90;;;;;;5115237;28;20712;-72
2022/10/18 04:35:37;;;;;;;7.07;4.90;;;15.40;99.90;;;;;;5114720;28;20211;-72
2022/10/18 04:38:04;;;;;;;7.23;4.53;;;15.50;99.90;;;;;;5113915;28;20200;-72
2022/10/18 04:40:30;;;;;;;6.67;4.70;;;15.50;99.90;;;;;;5115458;28;20207;-72
2022/10/18 04:42:58;;;;;;;9.33;5.20;;;;;;;;;;5112678;28;20727;-71
2022/10/18 04:45:24;;;;;;;11.10;5.10;;;15.40;99.90;;;;;;5108723;28;20656;-71
2022/10/18 04:47:51;;;;;;;5.80;4.93;;;15.40;99.90;;;;;;5115753;28;20207;-72
2022/10/18 04:50:18;;;;;;;6.60;4.37;;;15.40;99.90;;;;;;5115779;28;20227;-72
2022/10/18 04:52:46;;;;;;;7.83;5.30;;;15.40;99.90;;;;;;5113871;28;20242;-72
2022/10/18 04:55:13;;;;;;;13.43;4.60;;;15.40;99.90;;;;;;5111431;28;20696;-71
2022/10/18 04:57:40;;;;;;;5.90;4.83;;;15.40;99.90;;;;;;5111926;28;20219;-70
2022/10/18 05:00:07;;;;;;;6.00;5.10;;;15.40;99.90;;;;;;5114678;28;20203;-71
2022/10/18 05:02:34;;;;;;;7.33;4.97;;;15.30;99.90;;;;;;5113526;28;20215;-70
2022/10/18 05:05:01;;;;;;;6.47;4.80;;;15.30;99.90;;;;;;5114968;28;20200;-70
2022/10/18 05:07:28;;;;;;;9.67;5.43;;;;;;;;;;5114341;28;20565;-71
2022/10/18 05:09:56;;;;;;;6.03;5.17;;;15.30;99.90;;;;;;5110993;28;20207;-70
2022/10/18 05:12:23;;;;;;;7.07;5.33;;;15.30;99.90;;;;;;5112942;28;20223;-69
2022/10/18 05:14:49;;;;;;;7.60;4.93;;;15.30;99.90;;;;;;5108502;28;20212;-70
2022/10/18 05:17:17;;;;;;;7.63;4.93;;;;;;;;;;5108432;28;20519;-71
2022/10/18 05:19:43;;;;;;;7.93;4.80;;;15.30;99.90;;;;;;5112336;28;20207;-68
2022/10/18 05:22:10;;;;;;;7.93;6.07;;;15.30;99.90;;;;;;5114032;28;20216;-73
2022/10/18 05:24:37;;;;;;;8.60;5.40;;;15.30;99.90;;;;;;5111162;28;20209;-71
2022/10/18 05:27:05;;;;;;;9.13;5.77;;;15.30;99.90;;;;;;5110261;28;20223;-71
2022/10/18 05:29:32;;;;;;;8.57;5.37;;;15.30;99.90;;;;;;5113335;28;20204;-71
2022/10/18 05:31:59;;;;;;;10.70;5.00;;;15.30;99.90;;;;;;5113713;28;20412;-73
2022/10/18 05:34:26;;;;;;;5.97;4.93;;;15.30;99.90;;;;;;5115221;28;20214;-74
2022/10/18 05:36:53;;;;;;;6.17;4.97;;;15.30;99.90;;;;;;5111447;28;20268;-73
2022/10/18 05:39:19;;;;;;;7.07;5.27;;;15.30;99.90;;;;;;5113885;28;20235;-73
2022/10/18 05:41:46;;;;;;;7.80;5.53;;;;;;;;;;5114003;28;20215;-74
2022/10/18 05:44:15;;;;;;;9.97;5.80;;;15.30;99.90;;;;;;5113528;28;20208;-73
2022/10/18 05:46:41;;;;;;;6.50;4.90;;;15.30;99.90;;;;;;5111734;28;20208;-71
2022/10/18 05:49:10;;;;;;;6.37;5.17;;;15.40;99.90;;;;;;5108303;28;20467;-73
2022/10/18 05:51:37;;;;;;;7.27;5.03;;;;;;;;;;5103546;27;20282;-70
2022/10/18 05:54:04;;;;;;;7.27;5.63;;;15.40;99.90;;;;;;5113812;28;20211;-69
2022/10/18 05:56:31;;;;;;;7.97;5.27;;;15.40;99.90;;;;;;5106870;28;20564;-73
2022/10/18 05:58:57;;;;;;;10.53;5.80;;;15.50;99.90;;;;;;5106445;28;20861;-70
2022/10/18 06:01:25;;;;;;;8.97;5.90;;;15.50;99.90;;;;;;5111422;28;20200;-69
2022/10/18 06:03:52;;;;;;;10.80;5.63;;;15.50;99.90;;;;;;5111452;28;20576;-70
2022/10/18 06:06:19;;;;;;;7.10;5.43;;;15.50;99.90;;;;;;5113141;28;20204;-71
2022/10/18 06:08:49;;;;;;;7.37;5.27;;;15.60;99.90;;;;;;5113268;28;20203;-71
2022/10/18 06:11:19;;;;;;;8.90;5.83;;;15.70;99.90;;;;;;5112363;28;20268;-72
2022/10/18 06:13:47;;;;;;;7.97;5.77;;;15.70;99.90;;;;;;5112229;28;20223;-71
2022/10/18 06:16:16;;;;;;;6.50;4.83;;;15.80;99.90;;;;;;5106931;28;21039;-71
2022/10/18 06:18:48;;;;;;;8.80;6.00;;;15.90;99.90;;;;;;5113695;28;20228;-72
2022/10/18 06:21:15;;;;;;;10.53;5.60;;;15.90;99.90;;;;;;5112448;28;20552;-72
2022/10/18 06:23:42;;;;;;;9.23;5.70;;;16.00;99.90;;;;;;5102874;28;20234;-73
2022/10/18 06:26:11;;;;;;;14.37;6.17;;;16.00;99.90;;;;;;5111974;28;20244;-71
2022/10/18 06:28:38;;;;;;;9.50;5.73;;;16.10;99.90;;;;;;5108464;28;20192;-70
2022/10/18 06:31:06;;;;;;;7.17;5.17;;;16.10;99.90;;;;;;5110933;28;20618;-72
2022/10/18 06:33:34;;;;;;;11.18;5.95;;;16.20;99.90;;;;;;5111479;28;20208;-72
2022/10/18 06:36:04;;;;;;;10.57;5.73;;;16.20;99.90;;;;;;5112245;28;20208;-69
2022/10/18 06:38:31;;;;;;;10.07;5.55;;;16.30;99.90;;;;;;5107314;28;20192;-70
2022/10/18 06:40:58;;;;;;;10.25;5.90;;;16.30;99.90;;;;;;5108324;28;20215;-70
2022/10/18 06:43:26;;;;;;;7.60;5.60;;;16.30;99.90;;;;;;5107790;28;20196;-69
2022/10/18 06:45:53;;;;;;;9.38;5.72;;;16.30;99.90;;;;;;5106369;28;20207;-70
2022/10/18 06:48:20;;;;;;;6.82;5.50;;;16.40;99.90;;;;;;5107163;28;20214;-73
2022/10/18 06:50:51;;;;;;;15.55;5.82;;;16.50;99.90;;;;;;5109976;28;20658;-71
2022/10/18 06:53:19;;;;;;;10.10;6.03;;;16.50;99.90;;;;;;5111711;28;20207;-71
2022/10/18 06:55:47;;;;;;;12.77;5.60;;;;;;;;;;5109904;28;20206;-72
2022/10/18 06:58:13;;;;;;;11.38;6.18;;;16.70;99.90;;;;;;5107772;28;20208;-69
2022/10/18 07:00:40;;;;;;;10.23;5.70;;;16.80;99.90;;;;;;5112163;28;20601;-68
2022/10/18 07:03:07;;;;;;;9.18;6.13;;;16.80;99.90;;;;;;5107028;28;20272;-69
2022/10/18 07:05:34;;;;;;;8.02;6.40;;;16.90;99.90;;;;;;5104437;28;20208;-68
2022/10/18 07:08:01;;;;;;;9.65;6.25;;;17.00;99.90;;;;;;5107522;28;20575;-68
2022/10/18 07:10:29;;;;;;;7.15;5.85;;;17.00;99.90;;;;;;5109807;28;20195;-69
2022/10/18 07:12:56;;;;;;;9.63;5.93;;;17.10;99.90;;;;;;5107384;28;20232;-68
2022/10/18 07:15:23;;;;;;;6.65;5.70;;;17.10;99.90;;;;;;5100944;28;20219;-68
2022/10/18 07:17:50;;;;;;;9.23;6.13;;;17.10;99.90;;;;;;5102220;28;20207;-69
2022/10/18 07:20:17;;;;;;;13.13;6.13;;;17.10;99.90;;;;;;5103261;28;20668;-69
2022/10/18 07:22:43;;;;;;;7.28;5.85;;;17.20;99.90;;;;;;5104592;28;20307;-69
2022/10/18 07:25:10;;;;;;;9.70;6.03;;;17.30;99.90;;;;;;5100886;28;21219;-68
2022/10/18 07:27:39;;;;;;;11.60;6.18;;;17.30;99.90;;;;;;5102323;28;20235;-71
2022/10/18 07:30:07;;;;;;;12.10;7.65;;;17.40;99.90;;;;;;5105965;28;20204;-71
2022/10/18 07:32:34;;;;;;;8.70;6.50;;;17.60;99.90;;;;;;5103606;28;20220;-71
2022/10/18 07:35:01;;;;;;;12.40;6.10;;;17.60;99.90;;;;;;5102965;28;20211;-71
2022/10/18 07:37:28;;;;;;;9.82;5.93;;;17.70;99.90;;;;;;5104164;28;20215;-70
2022/10/18 07:39:55;;;;;;;11.43;6.97;;;17.80;99.90;;;;;;5105995;28;20199;-70
2022/10/18 07:42:22;;;;;;;8.93;6.00;;;17.80;99.90;;;;;;5103165;28;20226;-70
2022/10/18 07:44:50;;;;;;;7.57;6.57;;;17.80;99.90;;;;;;5105103;28;20211;-69
2022/10/18 07:47:17;;;;;;;10.18;6.43;;;17.90;99.90;;;;;;5106486;28;20543;-68
2022/10/18 07:49:43;;;;;;;9.48;5.88;;;17.90;99.90;;;;;;5101767;28;20204;-66
2022/10/18 07:52:10;;;;;;;12.15;6.20;;;17.90;99.90;;;;;;5108134;28;20230;-66
2022/10/18 07:54:37;;;;;;;10.38;6.22;;;18.00;99.90;;;;;;5104388;28;20199;-67
2022/10/18 07:57:04;;;;;;;8.45;6.45;;;18.10;99.90;;;;;;5101664;28;20217;-69
2022/10/18 07:59:31;;;;;;;9.48;6.45;;;18.20;99.90;;;;;;5106216;28;20231;-66
2022/10/18 08:01:59;;;;;;;11.85;6.22;;;18.30;99.90;;;;;;5105101;28;20659;-66
2022/10/18 08:04:26;;;;;;;10.20;6.57;;;18.40;99.90;;;;;;5104322;28;20566;-67
2022/10/18 08:06:52;;;;;;;8.73;6.47;;;18.50;99.90;;;;;;5103165;28;20552;-70
2022/10/18 08:09:19;;;;;;;10.20;6.13;;;18.60;99.90;;;;;;5109095;28;20208;-71
2022/10/18 08:11:46;;;;;;;11.68;7.18;;;18.70;99.90;;;;;;5109989;28;20203;-69
2022/10/18 08:14:12;;;;;;;16.55;7.80;;;18.90;99.90;;;;;;5103406;28;20217;-70
2022/10/18 08:16:39;;;;;;;12.65;6.20;;;18.90;99.90;;;;;;5103342;28;20203;-68
2022/10/18 08:19:07;;;;;;;7.13;6.18;;;18.90;99.90;;;;;;5101929;28;20222;-67
2022/10/18 08:21:34;;;;;;;11.15;7.50;;;19.00;99.90;;;;;;5105273;28;20215;-68
2022/10/18 08:24:01;;;;;;;11.35;6.70;;;;;;;;;;5107656;28;20585;-68
2022/10/18 08:26:28;;;;;;;9.88;7.18;;;19.10;99.90;;;;;;5111273;28;20519;-68
2022/10/18 08:28:55;;;;;;;7.65;6.80;;;19.20;99.90;;;;;;5107779;28;20203;-68
2022/10/18 08:31:22;;;;;;;10.82;7.03;;;19.40;99.90;;;;;;5101801;28;20288;-68
2022/10/18 08:33:48;;;;;;;7.70;6.35;;;19.40;99.90;;;;;;5100407;28;20226;-67
2022/10/18 08:36:17;;;;;;;13.18;7.28;;;19.60;99.90;;;;;;5104140;28;20209;-67
2022/10/18 08:38:44;;;;;;;11.73;7.30;;;19.80;99.90;;;;;;5110015;28;20199;-67
2022/10/18 08:41:28;;;;;;;8.75;6.50;;;20.30;99.90;;;;;;5115640;28;20207;-66
2022/10/18 08:44:04;;;;;;;7.82;6.97;;;20.40;99.90;;;;;;5107266;28;20287;-66
2022/10/18 08:46:33;;;;;;;11.45;7.18;;;20.70;99.90;;;;;;5105579;28;20278;-67
2022/10/18 08:49:01;;;;;;;9.93;7.13;;;21.10;99.90;;;;;;5104989;28;20207;-66
2022/10/18 08:51:35;;;;;;;10.93;7.78;;;22.00;99.90;;;;;;5095610;28;20227;-67
2022/10/18 08:54:06;;;;;;;12.25;7.07;;;23.80;99.70;;;;;;5098552;28;20564;-67
2022/10/18 08:56:34;;;;;;;9.20;6.78;;;26.40;94.00;;;;;;5109929;28;20196;-67
2022/10/18 08:59:02;;;;;;;11.02;7.00;;;28.90;79.60;;;;;;5103319;28;20215;-67
2022/10/18 09:01:39;;;;;;;7.18;6.13;;;30.90;66.50;;;;;;5108322;28;20729;-67
2022/10/18 09:04:36;;;;;;;13.52;7.75;;;32.30;58.00;;;;;;5110404;28;20227;-69
2022/10/18 09:07:24;;;;;;;8.25;7.32;;;33.60;53.40;;;;;;5108803;28;20196;-66
2022/10/18 09:09:59;;;;;;;13.43;7.38;;;34.90;49.40;;;;;;5111387;28;20215;-66
2022/10/18 09:12:47;;;;;;;14.02;7.30;;;35.80;46.80;;;;;;5101407;28;20216;-66
2022/10/18 09:15:20;;;;;;;10.88;7.68;;;36.40;45.00;;;;;;5113089;28;20196;-66
2022/10/18 09:17:59;;;;;;;9.82;7.68;;;36.80;43.60;;;;;;5108334;28;20196;-66
2022/10/18 09:20:28;;;;;;;10.77;8.13;;;36.50;43.10;;;;;;5109315;28;20207;-66
2022/10/18 09:23:02;;;;;;;12.95;7.57;;;36.30;43.30;;;;;;5112459;28;20220;-66
2022/10/18 09:25:35;;;;;;;14.68;7.28;;;36.40;43.40;;;;;;5113568;28;20583;-66
2022/10/18 09:28:15;;;;;;;9.30;7.68;;;36.70;42.60;;;;;;5109702;28;20242;-66
2022/10/18 09:30:51;;;;;;;8.32;7.53;;;36.80;42.80;;;;;;5110533;28;20211;-66
2022/10/18 09:33:38;;;;;;;10.35;7.78;;;37.10;42.60;;;;;;5107842;28;20207;-67
2022/10/18 09:36:07;;;;;;;10.48;7.55;;;37.80;41.10;;;;;;5108682;28;20200;-67
2022/10/18 09:38:43;;;;;;;12.40;8.50;;;38.30;39.40;;;;;;5106680;28;20657;-67
2022/10/18 09:41:16;;;;;;;11.80;8.10;;;37.50;39.70;;;;;;5111135;28;20568;-68
2022/10/18 09:43:50;;;;;;;12.48;8.25;;;36.60;40.80;;;;;;5110546;28;20200;-66
2022/10/18 09:46:20;;;;;;;9.40;7.68;;;36.40;41.80;;;;;;5109952;27;20204;-67
2022/10/18 09:48:51;;;;;;;11.13;8.50;;;36.80;42.10;;;;;;5112583;28;20208;-67
2022/10/18 09:51:21;;;;;;;15.50;8.55;;;37.50;41.20;;;;;;5112821;28;20207;-68
2022/10/18 09:54:17;;;;;;;9.43;7.93;;;38.60;40.10;;;;;;5110729;28;20212;-68
2022/10/18 09:56:48;;;;;;;10.00;7.82;;;39.70;38.30;;;;;;5109339;28;20200;-66
2022/10/18 09:59:32;;;;;;;12.32;9.00;;;40.70;36.90;;;;;;5112089;28;20208;-66
2022/10/18 10:01:59;;;;;;;9.77;8.02;;;41.40;35.80;;;;;;5105452;28;20221;-65
2022/10/18 10:04:26;;;;;;;11.13;9.35;;;42.30;35.50;;;;;;5103411;28;20924;-68
2022/10/18 10:06:54;;;;;;;10.70;8.30;;;43.40;34.00;;;;;;5106906;28;21116;-67
2022/10/18 10:09:29;;;;;;;11.10;8.75;;;44.20;33.20;;;;;;5108059;28;20562;-69
2022/10/18 10:11:56;;;;;;;11.23;8.10;;;44.60;32.40;;;;;;5108880;28;20651;-67
2022/10/18 10:14:26;;;;;;;9.35;8.38;;;44.50;32.00;;;;;;5108880;28;20254;-66
2022/10/18 10:16:54;;;;;;;9.00;8.07;;;43.10;32.40;;;;;;5102466;28;20236;-69
2022/10/18 10:19:27;;;;;;;10.90;8.65;;;41.50;33.90;;;;;;5105454;28;20207;-70
2022/10/18 10:21:58;;;;;;;10.68;9.40;;;40.10;35.30;;;;;;5111586;28;20199;-69
2022/10/18 10:24:45;;;;;;;12.68;9.10;;;39.20;36.80;;;;;;5110106;28;20195;-68
2022/10/18 10:27:19;;;;;;;13.25;9.40;;;38.60;37.60;;;;;;5106282;28;20246;-67
2022/10/18 10:29:56;;;;;;;11.07;9.68;;;38.30;38.30;;;;;;5105731;28;20199;-67
2022/10/18 10:32:28;;;;;;;14.43;9.15;;;39.30;37.40;;;;;;5108247;28;20248;-68
2022/10/18 10:34:56;;;;;;;12.02;8.60;;;39.30;36.40;;;;;;5107180;28;20227;-69
2022/10/18 10:37:50;;;;;;;12.88;9.57;;;38.40;37.00;;;;;;5110776;28;20196;-68
2022/10/18 10:40:22;;;;;;;11.85;9.13;;;37.30;38.20;;;;;;5105691;28;20214;-67
2022/10/18 10:42:55;;;;;;;15.38;8.90;;;36.30;39.50;;;;;;5110857;28;20204;-67
2022/10/18 10:45:23;;;;;;;16.50;9.00;;;35.40;40.70;;;;;;5108140;28;20508;-69
2022/10/18 10:47:52;;;;;;;12.50;8.93;;;34.20;42.20;;;;;;5104317;28;20841;-69
2022/10/18 10:50:25;;;;;;;15.38;8.93;;;33.60;43.70;;;;;;5109135;28;20626;-68
2022/10/18 10:52:52;;;;;;;12.32;9.93;;;32.90;44.50;;;;;;5107949;28;20478;-68
2022/10/18 10:55:26;;;;;;;13.70;10.35;;;32.40;45.50;;;;;;5109223;28;20204;-68
2022/10/18 10:57:54;;;;;;;11.13;9.63;;;31.80;46.70;;;;;;5110168;28;20206;-68
2022/10/18 11:00:39;;;;;;;15.93;10.68;;;32.30;47.80;;;;;;5107717;28;20706;-68
2022/10/18 11:03:10;;;;;;;10.73;9.45;;;33.60;46.10;;;;;;5106700;28;20222;-70
2022/10/18 11:05:44;;;;;;;10.55;9.43;;;34.30;44.70;;;;;;5098779;28;20208;-68
2022/10/18 11:08:13;;;;;;;13.50;9.13;;;35.30;43.90;;;;;;5105062;28;20241;-69
2022/10/18 11:10:53;;;;;;;10.32;9.20;;;36.60;42.50;;;;;;5102614;28;20565;-70
2022/10/18 11:13:30;;;;;;;12.75;9.52;;;37.70;40.90;;;;;;5109191;28;20581;-69
2022/10/18 11:16:03;;;;;;;12.77;10.73;;;38.20;39.70;;;;;;5104639;28;20664;-68
2022/10/18 11:18:33;;;;;;;11.13;8.52;;;38.50;39.80;;;;;;5102148;28;20208;-69
2022/10/18 11:21:06;;;;;;;10.77;9.68;;;38.60;39.10;;;;;;5105428;28;20211;-69
2022/10/18 11:23:35;;;;;;;11.95;10.18;;;38.50;39.30;;;;;;5105557;28;20220;-70
2022/10/18 11:26:28;;;;;;;13.15;9.23;;;38.40;39.10;;;;;;5102973;28;20215;-68
2022/10/18 11:29:32;;;;;;;21.08;10.70;;;38.30;39.30;;;;;;5094186;28;20210;-69
2022/10/18 11:32:09;;;;;;;13.45;10.55;;;38.00;39.50;;;;;;5105602;28;20576;-69
2022/10/18 11:35:03;;;;;;;11.30;10.20;;;37.20;40.00;;;;;;5106137;28;21005;-69
2022/10/18 11:37:45;;;;;;;13.00;10.23;;;36.00;41.60;;;;;;5101698;28;20239;-68
2022/10/18 11:40:30;;;;;;;12.00;10.57;;;35.00;42.90;;;;;;5103404;28;20199;-68
2022/10/18 11:43:05;;;;;;;14.02;10.38;;;34.70;44.30;;;;;;5108782;28;20671;-68
2022/10/18 11:45:41;;;;;;;13.45;10.30;;;34.60;44.00;;;;;;5101698;28;20219;-69
2022/10/18 11:48:24;;;;;;;13.18;10.00;;;34.10;44.30;;;;;;5102463;28;20214;-68
2022/10/18 11:51:00;;;;;;;12.38;11.07;;;33.30;45.90;;;;;;5101392;28;20203;-67
2022/10/18 11:53:38;;;;;;;14.55;10.70;;;32.80;46.90;;;;;;5110209;28;20214;-68
2022/10/18 11:56:14;;;;;;;11.38;10.00;;;33.20;47.90;;;;;;5108181;28;20705;-67
2022/10/18 11:59:01;;;;;;;14.77;10.38;;;33.80;46.40;;;;;;5109272;28;20267;-66
2022/10/18 12:01:36;;;;;;;15.70;10.80;;;33.90;45.60;;;;;;5107474;28;20305;-66
2022/10/18 12:04:08;;;;;;;12.15;10.13;;;33.40;45.60;;;;;;5104308;28;20195;-66
2022/10/18 12:06:39;;;;;;;14.02;11.55;;;32.60;46.90;;;;;;5106901;28;20195;-66
2022/10/18 12:09:16;;;;;;;16.23;11.05;;;32.00;48.20;;;;;;5101081;28;20208;-65
2022/10/18 12:11:49;;;;;;;12.27;10.98;;;31.10;48.80;;;;;;5108433;28;20250;-67
2022/10/18 12:14:24;;;;;;;14.38;11.65;;;30.10;50.60;;;;;;5100864;28;20220;-68
2022/10/18 12:16:55;;;;;;;13.90;11.32;;;29.20;52.40;;;;;;5101307;28;20203;-67
2022/10/18 12:19:25;;;;;;;15.23;11.68;;;28.40;54.20;;;;;;5097026;28;20214;-68
2022/10/18 12:21:53;;;;;;;12.43;10.50;;;26.80;56.80;;;;;;5109931;28;20210;-69
2022/10/18 12:24:24;;;;;;;14.05;11.55;;;26.80;57.50;;;;;;5110910;28;20533;-69
2022/10/18 12:26:56;;;;;;;17.15;11.75;;;26.30;58.80;;;;;;5110350;28;20238;-66
2022/10/18 12:29:29;;;;;;;13.15;11.57;;;25.80;59.70;;;;;;5106455;28;20612;-69
2022/10/18 12:31:59;;;;;;;19.52;11.20;;;25.50;61.40;;;;;;5104659;28;20200;-68
2022/10/18 12:34:32;;;;;;;14.70;11.45;;;25.00;62.90;;;;;;5107129;28;20238;-67
2022/10/18 12:37:14;;;;;;;16.52;12.23;;;24.70;64.30;;;;;;5114680;28;20200;-67
2022/10/18 12:39:45;;;;;;;13.70;12.25;;;24.40;65.20;;;;;;5110298;28;20210;-68
2022/10/18 12:42:20;;;;;;;14.88;11.27;;;24.10;66.10;;;;;;5112720;28;20216;-68
2022/10/18 12:44:48;;;;;;;17.58;12.32;;;23.70;67.50;;;;;;5103294;28;20208;-68
2022/10/18 12:47:22;;;;;;;16.77;12.90;;;23.70;68.10;;;;;;5110652;28;20211;-67
2022/10/18 12:49:57;;;;;;;17.80;12.40;;;23.50;69.30;;;;;;5107479;28;20657;-66
2022/10/18 12:52:26;;;;;;;17.27;12.90;;;23.00;70.40;;;;;;5102682;28;20203;-68
2022/10/18 12:55:26;;;;;;;19.80;14.27;;;22.90;71.20;;;;;;5108835;28;20231;-67
2022/10/18 12:58:03;;;;;;;22.50;13.07;;;22.70;72.40;;;;;;5108086;28;20223;-67
2022/10/18 13:00:53;;;;;;;19.55;12.20;;;22.50;74.00;;;;;;5099016;28;20553;-68